Time;durP1;ratioP1;P1;durP2;ratioP2;P2;SDS_P1;SDS_P2;PMS_P1;PMS_P2;Temp;Humidity;BMP_temperature;BMP_pressure;BME280_temperature;BME280_humidity;BME280_pressure;Samples;Min_cycle;Max_cycle;Signal;HPM_P1;HPM_P2
2022/09/12 00:01:18;;;;;;;6.20;4.30;;;19.00;88.80;;;19.38;54.51;98811.31;4971849;28;108960;-77
2022/09/12 00:03:45;;;;;;;5.23;4.33;;;19.00;88.90;;;19.36;54.49;98816.47;4982647;28;124550;-72
2022/09/12 00:06:15;;;;;;;5.57;4.50;;;19.00;89.00;;;19.34;54.64;98813.25;4973344;28;123227;-73
2022/09/12 00:08:41;;;;;;;4.40;4.00;;;19.00;89.10;;;19.32;54.60;98810.00;4990287;28;109167;-74
2022/09/12 00:11:12;;;;;;;5.37;4.60;;;18.90;89.00;;;19.28;54.26;98806.31;4974082;28;109063;-73
2022/09/12 00:13:41;;;;;;;6.50;4.13;;;18.90;89.10;;;19.28;54.61;98805.50;4980370;28;124347;-76
2022/09/12 00:16:14;;;;;;;5.90;3.93;;;18.90;89.10;;;19.24;54.58;98813.84;4982615;28;123791;-76
2022/09/12 00:18:41;;;;;;;6.37;4.77;;;18.80;89.10;;;19.21;54.61;98803.38;4981828;28;109415;-75
2022/09/12 00:21:08;;;;;;;5.50;4.73;;;18.90;89.30;;;19.19;54.86;98802.94;4978183;28;107986;-73
2022/09/12 00:23:34;;;;;;;5.07;4.40;;;18.80;89.30;;;19.17;54.78;98797.69;4984888;28;124103;-73
2022/09/12 00:26:05;;;;;;;6.40;4.57;;;18.80;89.40;;;19.16;54.81;98804.47;4986955;28;123768;-76
2022/09/12 00:28:37;;;;;;;5.33;3.83;;;18.80;89.50;;;19.14;54.85;98806.03;4979652;28;109523;-76
2022/09/12 00:31:17;;;;;;;5.07;4.30;;;18.80;89.60;;;19.10;54.97;98803.16;4984522;28;109642;-76
2022/09/12 00:33:43;;;;;;;6.90;5.57;;;18.70;89.60;;;19.06;55.06;98801.47;4967397;28;123482;-75
2022/09/12 00:36:15;;;;;;;4.87;4.37;;;18.70;89.80;;;19.04;55.20;98803.81;4990182;28;124180;-75
2022/09/12 00:38:42;;;;;;;8.27;5.30;;;18.70;90.00;;;19.04;55.30;98806.63;4999607;28;110151;-75
2022/09/12 00:41:16;;;;;;;5.50;4.90;;;18.60;90.00;;;19.01;55.37;98798.97;4986191;28;109821;-76
2022/09/12 00:43:55;;;;;;;6.40;4.47;;;18.70;90.10;;;19.00;55.16;98786.94;4972146;28;123717;-75
2022/09/12 00:46:37;;;;;;;7.93;5.10;;;18.60;90.10;;;18.96;55.25;98789.66;4983101;28;124029;-75
2022/09/12 00:49:19;;;;;;;5.60;4.77;;;18.60;90.10;;;18.94;55.15;98782.81;4983135;28;110849;-75
2022/09/12 00:52:04;;;;;;;5.70;4.60;;;18.50;90.10;;;18.93;55.26;98792.41;4987313;28;108823;-75
2022/09/12 00:54:47;;;;;;;4.80;4.30;;;18.60;90.10;;;18.90;55.43;98796.75;4981558;28;123998;-75
2022/09/12 00:57:15;;;;;;;7.10;5.03;;;18.50;90.20;;;18.86;55.71;98784.69;4981619;28;123658;-75
2022/09/12 00:59:53;;;;;;;6.50;4.93;;;18.50;90.20;;;18.87;55.61;98786.28;4997911;28;109138;-75
2022/09/12 01:02:20;;;;;;;7.17;5.03;;;18.40;90.20;;;18.84;55.65;98784.22;4974045;28;108939;-75
2022/09/12 01:04:47;;;;;;;7.07;4.37;;;18.40;90.20;;;18.83;55.66;98776.97;4993466;28;124404;-75
2022/09/12 01:07:14;;;;;;;5.23;4.30;;;18.50;90.30;;;18.83;55.69;98776.19;4978255;28;124220;-75
2022/09/12 01:09:43;;;;;;;5.10;4.60;;;18.40;90.30;;;18.80;55.75;98783.31;4997233;28;108734;-75
2022/09/12 01:12:12;;;;;;;6.70;5.50;;;18.40;90.30;;;18.78;55.88;98777.31;4963043;28;109390;-74
2022/09/12 01:14:39;;;;;;;6.80;4.77;;;18.40;90.40;;;18.78;55.84;98768.91;4964594;28;124959;-75
2022/09/12 01:17:05;;;;;;;5.97;5.00;;;18.40;90.40;;;18.77;56.01;98781.25;4976667;28;123705;-76
2022/09/12 01:20:22;;;;;;;6.87;4.40;;;18.40;90.50;;;18.72;55.89;98767.53;4978179;28;109258;-75
2022/09/12 01:23:17;;;;;;;6.87;4.80;;;18.40;90.50;;;18.70;55.96;98761.50;4986545;28;109378;-76
2022/09/12 01:26:07;;;;;;;9.80;5.03;;;18.30;90.50;;;18.64;56.03;98758.16;4976704;28;124183;-75
2022/09/12 01:28:57;;;;;;;4.60;4.03;;;18.30;90.70;;;18.61;56.07;98758.91;4973734;28;123576;-75
2022/09/12 01:31:42;;;;;;;6.33;4.77;;;18.30;90.60;;;18.60;56.14;98756.50;4988517;28;109119;-75
2022/09/12 01:34:49;;;;;;;6.00;5.20;;;18.20;90.60;;;18.54;56.38;98748.38;4976487;28;109286;-76
2022/09/12 01:38:16;;;;;;;7.17;4.43;;;18.20;90.70;;;18.50;56.19;98753.06;4953256;28;122903;-74
2022/09/12 01:41:02;;;;;;;6.10;4.80;;;18.20;90.70;;;18.48;56.20;98749.03;4930594;28;123880;-75
2022/09/12 01:43:44;;;;;;;6.90;5.27;;;18.10;90.70;;;18.44;56.48;98754.56;4969987;28;108755;-77
2022/09/12 01:46:25;;;;;;;6.73;4.37;;;18.10;90.80;;;18.41;56.62;98758.09;4983553;28;109530;-74
2022/09/12 01:49:11;;;;;;;6.00;5.17;;;18.10;90.80;;;18.40;56.68;98748.06;4971102;28;123878;-75
2022/09/12 01:52:03;;;;;;;4.33;3.87;;;18.00;90.90;;;18.38;56.62;98750.44;4999880;28;122589;-75
2022/09/12 01:54:43;;;;;;;4.97;4.47;;;18.00;90.90;;;18.38;56.78;98744.84;4982555;28;109189;-75
2022/09/12 01:57:35;;;;;;;5.13;4.53;;;18.00;91.00;;;18.36;56.69;98741.59;4980391;28;109116;-76
2022/09/12 02:00:09;;;;;;;7.03;4.80;;;18.00;91.00;;;18.35;56.77;98739.97;4968303;28;123998;-75
2022/09/12 02:02:46;;;;;;;6.10;5.13;;;17.90;91.00;;;18.35;56.87;98733.56;4982340;28;123376;-75
2022/09/12 02:05:26;;;;;;;6.57;5.20;;;18.00;91.10;;;18.31;56.67;98737.09;4988497;28;109591;-74
2022/09/12 02:08:08;;;;;;;7.07;5.87;;;17.90;91.00;;;18.29;56.70;98735.81;4988340;28;108792;-76
2022/09/12 02:10:48;;;;;;;7.40;5.00;;;17.90;91.10;;;18.27;56.76;98735.41;4982158;28;123975;-75
2022/09/12 02:13:24;;;;;;;6.10;5.10;;;17.80;91.00;;;18.26;56.80;98733.75;4974118;28;123595;-75
2022/09/12 02:16:04;;;;;;;5.60;4.77;;;17.90;91.10;;;18.25;56.74;98723.75;4982361;28;109230;-77
2022/09/12 02:18:33;;;;;;;5.07;4.40;;;17.80;91.00;;;18.23;56.60;98721.31;4968756;28;108915;-79
2022/09/12 02:21:02;;;;;;;5.87;4.90;;;17.80;91.00;;;18.23;56.67;98726.09;4964036;28;122869;-75
2022/09/12 02:23:31;;;;;;;6.23;4.63;;;17.80;91.00;;;18.22;56.71;98730.91;4985476;28;123214;-75
2022/09/12 02:26:12;;;;;;;6.83;5.00;;;17.80;91.00;;;18.22;56.79;98724.50;4986056;28;110228;-75
2022/09/12 02:28:42;;;;;;;7.47;5.40;;;17.90;91.10;;;18.19;56.88;98723.25;4990751;28;109508;-76
2022/09/12 02:31:28;;;;;;;5.50;4.35;;;17.80;91.10;;;18.19;56.76;98730.78;4982953;28;124069;-75
2022/09/12 02:34:21;;;;;;;9.33;5.73;;;19.10;91.70;;;18.17;56.96;98727.56;4987097;28;124331;-75
2022/09/12 02:37:15;;;;;;;4.97;4.50;;;17.80;91.20;;;18.14;56.95;98719.91;4990381;28;109169;-74
2022/09/12 02:39:41;;;;;;;5.50;5.00;;;17.80;91.20;;;18.12;57.00;98720.28;4986427;28;109074;-74
2022/09/12 02:42:08;;;;;;;6.43;5.00;;;17.70;91.20;;;18.13;57.12;98723.88;4971227;28;124595;-75
2022/09/12 02:44:35;;;;;;;6.83;5.23;;;17.70;91.20;;;18.11;57.07;98718.66;4984762;28;123804;-75
2022/09/12 02:47:16;;;;;;;5.90;5.30;;;17.70;91.20;;;18.09;57.00;98713.41;4984793;28;109992;-75
2022/09/12 02:49:42;;;;;;;7.30;4.83;;;17.70;91.20;;;18.08;57.18;98716.56;4984455;28;108583;-74
2022/09/12 02:52:09;;;;;;;7.23;5.43;;;17.70;91.20;;;18.07;57.09;98707.38;4988427;28;124344;-76
2022/09/12 02:54:37;;;;;;;7.63;4.80;;;17.70;91.30;;;18.05;57.06;98712.53;4991385;28;124171;-74
2022/09/12 02:57:15;;;;;;;5.60;4.93;;;17.60;91.20;;;18.04;57.13;98713.72;4992923;28;109166;-75
2022/09/12 02:59:41;;;;;;;5.67;4.90;;;17.60;91.20;;;18.03;57.22;98706.50;4995846;28;109201;-76
2022/09/12 03:02:35;;;;;;;5.67;4.93;;;17.60;91.30;;;18.02;56.92;98704.88;4981701;28;124279;-75
2022/09/12 03:05:21;;;;;;;6.80;5.40;;;17.60;91.20;;;18.00;57.12;98712.81;4980467;28;123209;-75
2022/09/12 03:08:14;;;;;;;9.70;5.27;;;17.60;91.30;;;17.97;57.04;98702.34;4980615;28;109091;-75
2022/09/12 03:11:04;;;;;;;5.30;4.50;;;17.60;91.30;;;17.95;57.18;98704.72;4976717;28;108712;-74
2022/09/12 03:14:06;;;;;;;6.00;5.20;;;17.50;91.30;;;17.91;57.02;98709.41;4991529;28;124857;-75
2022/09/12 03:16:54;;;;;;;6.13;5.30;;;17.50;91.30;;;17.90;57.12;98715.38;4976998;28;123909;-78
2022/09/12 03:19:34;;;;;;;5.90;4.50;;;17.50;91.30;;;17.88;57.30;98707.34;4980764;28;109909;-75
2022/09/12 03:22:20;;;;;;;5.07;4.50;;;17.50;91.40;;;17.86;57.29;98713.28;4987125;28;109749;-75
2022/09/12 03:25:24;;;;;;;6.60;4.90;;;17.50;91.70;;;17.79;57.38;98713.13;4982288;28;124118;-76
2022/09/12 03:28:08;;;;;;;7.97;5.30;;;17.40;91.40;;;17.75;57.35;98712.19;4975123;28;122978;-75
2022/09/12 03:30:45;;;;;;;5.00;4.33;;;17.30;91.40;;;17.72;57.60;98723.28;4971890;28;109266;-75
2022/09/12 03:33:23;;;;;;;5.30;4.80;;;17.30;91.50;;;17.70;57.81;98714.44;4977188;28;108776;-75
2022/09/12 03:35:51;;;;;;;7.30;5.63;;;17.30;91.60;;;17.70;57.65;98717.25;4983459;28;123966;-79
2022/09/12 03:38:18;;;;;;;10.73;5.83;;;17.30;91.60;;;17.70;57.71;98720.03;4987071;28;123908;-79
2022/09/12 03:40:45;;;;;;;5.53;4.93;;;17.30;91.70;;;17.70;57.83;98720.03;4984836;28;109186;-76
2022/09/12 03:43:12;;;;;;;7.83;4.63;;;17.30;91.70;;;17.71;57.84;98724.47;4984895;28;108958;-75
2022/09/12 03:45:38;;;;;;;9.47;5.30;;;17.30;92.00;;;17.69;57.97;98718.44;4976530;28;124078;-76
2022/09/12 03:48:05;;;;;;;6.67;5.40;;;17.30;91.70;;;17.70;57.81;98722.84;4989411;28;124648;-75
2022/09/12 03:50:32;;;;;;;7.40;6.00;;;17.30;91.70;;;17.67;57.93;98722.38;4971720;28;109936;-77
2022/09/12 03:52:59;;;;;;;6.63;5.73;;;17.20;92.00;;;17.67;57.63;98716.78;4978745;28;109073;-75
2022/09/12 03:55:26;;;;;;;6.87;5.30;;;17.30;91.80;;;17.66;58.00;98717.97;4993456;28;124152;-75
2022/09/12 03:57:55;;;;;;;5.20;4.70;;;17.30;91.80;;;17.65;57.81;98719.16;4975783;28;123370;-75
2022/09/12 04:00:22;;;;;;;6.43;5.30;;;17.20;91.70;;;17.64;57.99;98711.94;4978179;28;108394;-75
2022/09/12 04:02:56;;;;;;;9.10;6.17;;;17.20;91.70;;;17.64;58.05;98723.09;4980218;28;109169;-75
2022/09/12 04:05:24;;;;;;;6.70;5.93;;;17.20;91.80;;;17.62;57.91;98722.69;4956355;28;123491;-75
2022/09/12 04:07:51;;;;;;;7.30;6.17;;;17.20;91.80;;;17.61;57.73;98723.84;4977549;28;124235;-75
2022/09/12 04:10:18;;;;;;;8.17;5.83;;;17.20;91.80;;;17.61;58.08;98712.66;4989069;28;110107;-75
2022/09/12 04:12:44;;;;;;;6.33;5.43;;;17.20;91.80;;;17.59;58.06;98717.78;4992851;28;110675;-75
2022/09/12 04:15:11;;;;;;;11.90;6.07;;;17.20;91.80;;;17.58;58.13;98713.38;4983912;28;123204;-75
2022/09/12 04:17:37;;;;;;;9.10;6.27;;;17.20;91.90;;;17.57;58.28;98722.94;4987943;28;124968;-75
2022/09/12 04:20:05;;;;;;;7.87;6.00;;;17.20;91.90;;;17.54;58.09;98712.47;4990589;28;109671;-75
2022/09/12 04:22:32;;;;;;;6.70;5.73;;;17.10;91.90;;;17.55;58.40;98708.53;4989310;28;109236;-76
2022/09/12 04:24:58;;;;;;;7.87;6.13;;;17.10;91.90;;;17.52;58.17;98714.03;4989508;28;124034;-76
2022/09/12 04:27:25;;;;;;;6.23;5.57;;;17.10;91.90;;;17.50;58.10;98717.16;4990920;28;123567;-76
2022/09/12 04:29:53;;;;;;;6.63;5.50;;;17.10;92.00;;;17.49;58.28;98712.78;4985019;28;109239;-74
2022/09/12 04:32:21;;;;;;;8.40;6.60;;;17.10;92.00;;;17.47;58.42;98712.31;4963757;28;108444;-75
2022/09/12 04:34:47;;;;;;;9.00;6.53;;;17.10;92.00;;;17.45;58.58;98709.06;4992999;28;124415;-74
2022/09/12 04:37:15;;;;;;;9.80;7.03;;;17.00;92.00;;;17.43;58.36;98703.81;4971455;28;123937;-74
2022/09/12 04:39:42;;;;;;;9.97;7.40;;;17.00;92.10;;;17.39;58.50;98716.09;4978575;28;109430;-75
2022/09/12 04:42:08;;;;;;;6.63;5.33;;;16.90;92.10;;;17.34;58.49;98711.59;4988859;28;108954;-74
2022/09/12 04:44:35;;;;;;;9.00;6.53;;;16.90;92.20;;;17.35;58.67;98712.38;4990627;28;124185;-73
2022/09/12 04:47:02;;;;;;;12.60;6.60;;;16.90;92.70;;;17.37;58.88;98701.69;4985781;28;123884;-74
2022/09/12 04:49:28;;;;;;;8.73;6.37;;;17.00;92.50;;;17.41;58.86;98710.97;4986913;28;109339;-75
2022/09/12 04:51:55;;;;;;;7.33;5.50;;;16.90;92.50;;;17.41;58.96;98714.56;4984600;28;108990;-74
2022/09/12 04:54:21;;;;;;;8.70;6.37;;;16.90;92.50;;;17.41;58.93;98703.41;4980931;28;123285;-75
2022/09/12 04:56:50;;;;;;;7.30;5.57;;;17.00;92.50;;;17.41;58.70;98708.97;4979899;28;124159;-74
2022/09/12 04:59:18;;;;;;;7.13;6.10;;;17.00;92.50;;;17.41;58.79;98699.78;4977316;28;110178;-76
2022/09/12 05:01:45;;;;;;;9.23;6.63;;;16.90;92.40;;;17.39;58.69;98707.72;4978220;28;109843;-76
2022/09/12 05:04:12;;;;;;;9.60;6.67;;;17.00;92.50;;;17.39;58.88;98707.72;4988890;28;123826;-75
2022/09/12 05:06:41;;;;;;;8.30;6.90;;;16.90;92.40;;;17.40;58.82;98706.53;4983249;28;123579;-75
2022/09/12 05:09:11;;;;;;;10.50;6.63;;;16.90;92.40;;;17.42;58.83;98707.00;4985251;28;109046;-75
2022/09/12 05:11:40;;;;;;;8.10;6.33;;;17.00;92.50;;;17.43;58.54;98705.81;4990320;28;109273;-75
2022/09/12 05:14:07;;;;;;;6.23;5.40;;;16.90;92.40;;;17.44;58.57;98704.66;4987636;28;124769;-74
2022/09/12 05:16:33;;;;;;;6.67;5.90;;;17.00;92.40;;;17.44;58.56;98710.25;4984190;28;124501;-75
2022/09/12 05:19:00;;;;;;;10.50;6.10;;;17.00;92.40;;;17.44;58.53;98705.47;4985943;28;109537;-76
2022/09/12 05:21:26;;;;;;;6.60;5.80;;;17.00;92.40;;;17.45;58.61;98709.06;4990418;28;108980;-75
2022/09/12 05:23:56;;;;;;;6.63;5.47;;;17.00;92.40;;;17.46;58.64;98710.66;4969878;28;124585;-76
2022/09/12 05:26:22;;;;;;;6.70;5.10;;;17.00;92.40;;;17.48;58.62;98707.53;4973312;28;124414;-75
2022/09/12 05:28:50;;;;;;;6.80;6.10;;;17.00;92.40;;;17.49;58.61;98709.97;4978642;28;109149;-75
2022/09/12 05:31:23;;;;;;;9.07;5.80;;;17.00;92.40;;;17.52;58.43;98703.66;4986341;28;108992;-75
2022/09/12 05:33:53;;;;;;;10.60;6.57;;;17.00;92.40;;;17.53;58.24;98710.06;4985037;28;124053;-74
2022/09/12 05:36:29;;;;;;;9.77;6.70;;;17.00;92.30;;;17.51;58.35;98723.56;4987223;28;123845;-75
2022/09/12 05:38:58;;;;;;;13.23;6.63;;;17.00;92.20;;;17.44;58.41;98713.03;4987735;28;108362;-74
2022/09/12 05:41:29;;;;;;;9.63;6.80;;;16.90;92.30;;;17.36;58.56;98716.81;4987482;28;109045;-74
2022/09/12 05:43:59;;;;;;;12.73;6.93;;;16.90;92.40;;;17.35;58.75;98720.75;4982353;28;124077;-75
2022/09/12 05:46:29;;;;;;;11.23;5.50;;;16.80;92.40;;;17.37;58.65;98724.03;4987134;28;123804;-75
2022/09/12 05:48:57;;;;;;;7.73;5.67;;;16.90;92.50;;;17.42;58.82;98726.53;4983667;28;110038;-78
2022/09/12 05:51:27;;;;;;;8.47;6.33;;;16.90;92.60;;;17.45;58.68;98725.81;4981073;28;109921;-75
2022/09/12 05:53:57;;;;;;;9.13;5.90;;;16.90;92.60;;;17.49;58.75;98726.72;4985163;28;123993;-75
2022/09/12 05:56:27;;;;;;;10.20;6.33;;;17.00;92.60;;;17.54;58.64;98723.66;4988846;28;124735;-75
2022/09/12 05:59:02;;;;;;;8.90;6.00;;;17.00;92.60;;;17.60;58.35;98722.22;4981420;28;109099;-75
2022/09/12 06:01:32;;;;;;;8.53;7.63;;;17.10;92.60;;;17.64;58.27;98722.31;4986879;28;109006;-76
2022/09/12 06:04:01;;;;;;;12.67;7.50;;;17.10;92.60;;;17.67;58.46;98727.97;4986431;28;124567;-75
2022/09/12 06:06:30;;;;;;;9.70;6.47;;;17.10;92.50;;;17.72;58.25;98729.69;4980790;28;123865;-75
2022/09/12 06:09:00;;;;;;;9.27;6.80;;;17.10;92.50;;;17.76;58.14;98732.56;4978911;28;109150;-76
2022/09/12 06:11:30;;;;;;;10.73;7.37;;;17.20;92.50;;;17.81;57.97;98730.34;4979480;28;109291;-76
2022/09/12 06:13:58;;;;;;;12.40;7.17;;;17.20;92.40;;;17.87;57.98;98722.50;4985899;28;124082;-75
2022/09/12 06:16:28;;;;;;;7.37;6.10;;;17.30;92.40;;;17.91;57.80;98720.59;4988160;28;124064;-75
2022/09/12 06:19:05;;;;;;;14.60;8.13;;;17.40;92.40;;;17.99;57.62;98725.16;4979842;28;108928;-75
2022/09/12 06:21:34;;;;;;;8.53;7.13;;;17.40;92.50;;;18.03;57.51;98723.28;4978411;28;108619;-76
2022/09/12 06:24:01;;;;;;;7.93;6.10;;;17.40;92.30;;;18.05;57.40;98715.34;4990842;28;123650;-75
2022/09/12 06:26:28;;;;;;;11.23;7.40;;;17.50;92.30;;;18.13;57.42;98721.06;4986566;28;123916;-74
2022/09/12 06:28:58;;;;;;;9.80;7.00;;;17.50;92.30;;;18.19;57.42;98725.19;4976874;28;109686;-76
2022/09/12 06:31:36;;;;;;;11.10;6.87;;;17.60;92.30;;;18.26;57.17;98720.59;4985236;28;108923;-75
2022/09/12 06:34:07;;;;;;;12.77;7.33;;;17.60;92.20;;;18.30;56.99;98715.09;4987709;28;124224;-75
2022/09/12 06:36:41;;;;;;;13.50;7.00;;;17.70;92.10;;;18.33;56.77;98715.16;4987754;28;126108;-75
2022/09/12 06:39:13;;;;;;;12.60;6.93;;;17.70;92.00;;;18.35;56.68;98717.59;4976061;28;110225;-77
2022/09/12 06:41:39;;;;;;;14.13;7.97;;;17.70;91.90;;;18.39;57.13;98718.47;4987280;28;110122;-74
2022/09/12 06:44:06;;;;;;;10.10;7.00;;;17.70;92.10;;;18.47;57.02;98714.66;4985405;28;124438;-73
2022/09/12 06:46:32;;;;;;;12.30;7.70;;;17.80;92.10;;;18.55;56.65;98710.81;4987475;28;123541;-74
2022/09/12 06:49:00;;;;;;;10.50;7.57;;;17.90;92.00;;;18.63;56.72;98714.59;4989656;28;109223;-75
2022/09/12 06:51:28;;;;;;;9.77;6.67;;;17.90;92.00;;;18.75;56.53;98720.06;4986802;28;110179;-75
2022/09/12 06:53:56;;;;;;;14.80;9.73;;;18.00;92.10;;;18.84;56.18;98719.03;4971973;28;123180;-75
2022/09/12 06:56:26;;;;;;;8.30;6.90;;;18.10;91.90;;;18.87;55.90;98710.69;4978675;28;124325;-75
2022/09/12 06:58:57;;;;;;;12.67;7.80;;;18.20;91.80;;;18.93;55.78;98722.41;4971404;28;109159;-75
2022/09/12 07:01:29;;;;;;;8.57;7.10;;;18.20;91.70;;;19.01;55.93;98726.16;4974810;28;109484;-74
2022/09/12 07:03:59;;;;;;;10.43;6.60;;;18.30;91.70;;;19.10;55.87;98729.50;4973509;28;124127;-74
2022/09/12 07:06:30;;;;;;;11.50;7.47;;;18.40;91.70;;;19.18;55.30;98725.66;4972146;28;123751;-74
2022/09/12 07:08:58;;;;;;;11.10;7.60;;;18.50;91.60;;;19.25;55.13;98725.81;4971039;28;109941;-74
2022/09/12 07:11:30;;;;;;;9.70;6.70;;;18.50;91.50;;;19.34;54.91;98719.94;4972738;28;108967;-74
2022/09/12 07:14:01;;;;;;;9.50;7.67;;;18.60;91.40;;;19.45;54.73;98717.34;4969522;28;124234;-74
2022/09/12 07:16:28;;;;;;;11.33;7.30;;;18.70;91.30;;;19.53;54.64;98717.09;4968896;28;123836;-74
2022/09/12 07:19:00;;;;;;;14.77;8.53;;;18.80;91.20;;;19.60;54.58;98713.59;4971429;28;109165;-74
2022/09/12 07:21:28;;;;;;;14.70;7.00;;;18.90;91.10;;;19.66;54.54;98714.94;4980485;28;108996;-74
2022/09/12 07:23:58;;;;;;;9.50;7.53;;;18.90;91.10;;;19.75;54.29;98709.88;4983271;28;123829;-74
2022/09/12 07:26:28;;;;;;;10.27;7.13;;;19.00;91.00;;;19.84;54.32;98718.84;4966605;28;125248;-75
2022/09/12 07:28:56;;;;;;;8.67;6.97;;;19.10;91.00;;;19.93;53.77;98709.34;4976683;28;110238;-75
2022/09/12 07:31:25;;;;;;;11.30;6.50;;;19.20;90.90;;;20.01;53.80;98699.84;4973621;28;109950;-75
2022/09/12 07:33:52;;;;;;;9.10;6.83;;;19.30;90.80;;;20.08;53.01;98705.56;4989495;28;124684;-75
2022/09/12 07:36:22;;;;;;;10.47;6.30;;;19.30;90.60;;;20.12;53.51;98706.41;4992935;28;123868;-75
2022/09/12 07:38:56;;;;;;;9.30;7.40;;;19.40;90.60;;;20.23;53.04;98709.38;4977502;28;109381;-75
2022/09/12 07:41:30;;;;;;;14.83;8.77;;;19.50;90.50;;;20.25;52.75;98705.00;4991904;28;108837;-75
2022/09/12 07:43:59;;;;;;;9.37;6.93;;;19.50;90.40;;;20.28;52.82;98709.06;4990481;28;124442;-73
2022/09/12 07:46:28;;;;;;;11.60;5.93;;;19.50;90.40;;;20.34;53.07;98706.72;4983295;28;124238;-73
2022/09/12 07:48:57;;;;;;;14.37;7.50;;;19.60;90.30;;;20.38;52.66;98701.97;4983716;28;109170;-74
2022/09/12 07:51:26;;;;;;;12.53;7.37;;;19.70;90.20;;;20.40;52.51;98705.22;4970898;28;109413;-72
2022/09/12 07:53:53;;;;;;;10.13;6.80;;;19.70;90.10;;;20.40;52.33;98705.22;4985024;28;124330;-73
2022/09/12 07:56:20;;;;;;;10.30;6.77;;;19.70;90.00;;;20.44;52.49;98711.66;4975498;28;123928;-73
2022/09/12 07:58:47;;;;;;;10.83;7.13;;;19.70;90.00;;;20.49;52.33;98709.34;4973850;28;109607;-75
2022/09/12 08:01:21;;;;;;;11.20;7.50;;;19.80;90.00;;;20.51;52.41;98709.78;4990601;28;107980;-74
2022/09/12 08:03:53;;;;;;;8.67;6.33;;;19.80;89.90;;;20.55;52.09;98709.03;4985107;28;124199;-74
2022/09/12 08:06:24;;;;;;;12.87;6.93;;;19.80;89.80;;;20.59;51.99;98707.91;4972722;28;123903;-73
2022/09/12 08:08:53;;;;;;;9.77;6.97;;;19.90;89.60;;;20.59;51.96;98702.28;4986537;28;109419;-73
2022/09/12 08:11:22;;;;;;;8.97;6.50;;;19.90;89.50;;;20.57;51.95;98710.28;4982984;28;109680;-73
2022/09/12 08:13:50;;;;;;;10.63;7.47;;;19.90;89.40;;;20.56;51.67;98705.84;4987208;28;124004;-73
2022/09/12 08:16:20;;;;;;;13.30;7.70;;;19.90;89.30;;;20.56;51.92;98710.66;4969597;28;123977;-76
2022/09/12 08:18:48;;;;;;;11.23;6.60;;;19.80;89.20;;;20.59;52.17;98705.09;4976174;28;110208;-74
2022/09/12 08:21:20;;;;;;;10.13;6.23;;;19.90;89.30;;;20.63;51.98;98702.31;4984188;28;110391;-75
2022/09/12 08:23:51;;;;;;;10.23;6.13;;;20.00;89.30;;;20.66;52.03;98708.00;4989490;28;122906;-73
2022/09/12 08:26:17;;;;;;;10.27;5.87;;;20.00;89.20;;;20.70;51.59;98700.41;4962648;28;123461;-73
2022/09/12 08:28:45;;;;;;;8.97;5.53;;;20.00;89.00;;;20.75;52.00;98699.28;4990708;28;108180;-74
2022/09/12 08:31:15;;;;;;;7.23;5.60;;;20.00;89.00;;;20.79;51.53;98699.31;4990005;28;109520;-74
2022/09/12 08:33:42;;;;;;;10.37;5.20;;;20.10;88.90;;;20.83;51.80;98695.34;4991783;28;124551;-73
2022/09/12 08:36:12;;;;;;;7.17;5.33;;;20.20;88.80;;;20.88;51.44;98699.81;4982561;28;124510;-73
2022/09/12 08:38:42;;;;;;;16.57;5.50;;;20.20;88.70;;;20.90;51.60;98706.69;4987632;28;109199;-74
2022/09/12 08:41:27;;;;;;;10.63;5.70;;;20.20;88.40;;;20.92;51.45;98709.09;4990942;28;109143;-74
2022/09/12 08:44:10;;;;;;;6.53;4.60;;;20.30;88.40;;;20.94;51.19;98707.50;4986817;28;124707;-74
2022/09/12 08:47:18;;;;;;;7.77;4.80;;;20.30;88.40;;;20.95;51.54;98697.91;4979928;28;123732;-73
2022/09/12 08:50:10;;;;;;;8.70;5.77;;;20.40;88.30;;;20.96;51.16;98693.09;4977310;28;108187;-76
2022/09/12 08:53:02;;;;;;;8.80;4.97;;;20.40;88.10;;;20.96;51.24;98677.03;4975127;28;108873;-74
2022/09/12 08:55:50;;;;;;;4.30;3.63;;;20.40;88.20;;;21.04;51.38;98686.34;4971332;28;124335;-74
2022/09/12 08:58:21;;;;;;;4.87;4.00;;;20.50;88.90;;;21.12;51.32;98681.63;4976297;28;124080;-73
2022/09/12 09:01:17;;;;;;;8.97;5.07;;;20.50;88.10;;;21.18;51.07;98683.69;4975419;28;109158;-75
2022/09/12 09:04:21;;;;;;;8.30;4.70;;;20.60;87.90;;;21.26;50.95;98683.75;4990493;28;109302;-73
2022/09/12 09:07:15;;;;;;;6.50;4.37;;;20.60;87.80;;;21.34;50.96;98685.44;4977285;28;123172;-73
2022/09/12 09:10:05;;;;;;;5.60;4.17;;;20.70;87.60;;;21.38;50.66;98675.06;4984552;28;124027;-73
2022/09/12 09:12:47;;;;;;;5.70;3.87;;;20.80;87.50;;;21.46;50.57;98679.53;4990570;28;110358;-73
2022/09/12 09:15:40;;;;;;;6.00;3.90;;;20.80;87.20;;;21.54;50.51;98666.34;4975506;28;109196;-73
2022/09/12 09:18:20;;;;;;;6.07;3.90;;;20.90;86.90;;;21.62;49.95;98668.81;4973171;28;124219;-73
2022/09/12 09:21:02;;;;;;;29.67;6.37;;;21.00;86.90;;;21.69;50.18;98673.72;4977692;28;124604;-73
2022/09/12 09:23:54;;;;;;;19.87;4.90;;;21.10;86.70;;;21.75;49.73;98672.16;4991362;28;108876;-73
2022/09/12 09:26:41;;;;;;;13.63;4.57;;;21.10;86.80;;;21.81;49.69;98667.75;4975339;28;108870;-73
2022/09/12 09:29:24;;;;;;;5.50;3.70;;;21.20;86.00;;;21.87;48.99;98671.03;4989476;28;124486;-73
2022/09/12 09:31:54;;;;;;;11.23;3.63;;;21.30;85.70;;;21.93;49.15;98672.28;4977866;28;123842;-72
2022/09/12 09:34:24;;;;;;;6.97;4.00;;;21.30;85.50;;;21.97;49.20;98673.09;4978698;28;108785;-73
2022/09/12 09:36:57;;;;;;;6.77;3.30;;;21.30;85.10;;;22.02;48.42;98661.47;4972752;28;108456;-73
2022/09/12 09:39:51;;;;;;;4.13;3.10;;;21.40;84.90;;;22.06;48.30;98659.50;4984160;28;124507;-73
2022/09/12 09:42:42;;;;;;;4.83;3.20;;;21.50;84.90;;;22.12;48.30;98664.75;4982617;28;124589;-73
2022/09/12 09:45:22;;;;;;;3.50;2.83;;;21.50;84.00;;;22.18;47.79;98671.63;4985512;28;108858;-73
2022/09/12 09:48:25;;;;;;;3.87;2.67;;;21.60;83.80;;;22.21;47.69;98666.03;4983969;28;108977;-72
2022/09/12 09:50:52;;;;;;;5.23;3.10;;;21.70;83.40;;;22.29;47.72;98661.25;4953367;28;123615;-72
2022/09/12 09:53:47;;;;;;;9.60;3.20;;;21.70;83.00;;;22.32;47.24;98662.47;4989446;28;123942;-72
2022/09/12 09:56:33;;;;;;;3.30;2.70;;;21.80;82.20;;;22.37;46.92;98667.72;4983661;28;109363;-73
2022/09/12 09:59:25;;;;;;;3.90;2.67;;;21.80;82.20;;;22.42;46.58;98662.50;4984012;28;109040;-73
2022/09/12 10:01:54;;;;;;;4.20;2.20;;;21.80;81.60;;;22.48;46.52;98658.09;4987759;28;123976;-73
2022/09/12 10:04:26;;;;;;;3.67;2.70;;;21.90;81.60;;;22.57;46.12;98659.75;4973527;28;124315;-73
2022/09/12 10:06:59;;;;;;;8.73;2.90;;;22.00;81.20;;;22.63;45.50;98644.91;4985003;28;110530;-73
2022/09/12 10:09:31;;;;;;;8.13;3.43;;;22.00;80.30;;;22.70;45.08;98641.28;4985187;28;110202;-73
2022/09/12 10:12:01;;;;;;;4.30;3.00;;;22.10;79.70;;;22.75;44.69;98638.09;4973124;28;123557;-73
2022/09/12 10:14:30;;;;;;;3.23;2.47;;;22.20;78.90;;;22.82;44.16;98638.13;4984821;28;124499;-73
2022/09/12 10:16:57;;;;;;;3.03;2.73;;;22.20;78.30;;;22.88;43.73;98642.16;4987982;28;109294;-72
2022/09/12 10:19:36;;;;;;;3.10;2.30;;;22.30;77.40;;;22.94;43.50;98640.56;4974606;28;109407;-73
2022/09/12 10:22:04;;;;;;;4.20;2.37;;;22.40;77.10;;;23.02;43.50;98640.59;4988630;28;124276;-73
2022/09/12 10:24:42;;;;;;;2.73;2.33;;;22.40;76.50;;;23.10;43.36;98642.22;4971656;28;123519;-73
2022/09/12 10:27:11;;;;;;;3.33;2.40;;;22.50;76.30;;;23.20;42.92;98651.91;4987781;28;109072;-73
2022/09/12 10:29:51;;;;;;;4.20;2.30;;;22.60;75.70;;;23.25;42.30;98643.84;4971341;28;109183;-73
2022/09/12 10:32:39;;;;;;;4.90;2.60;;;22.70;74.80;;;23.31;41.62;98636.59;4977903;28;124552;-73
2022/09/12 10:35:32;;;;;;;3.97;2.37;;;22.70;73.70;;;23.41;41.33;98631.38;4982563;28;123667;-73
2022/09/12 10:38:06;;;;;;;4.33;2.80;;;22.80;72.80;;;23.50;40.91;98623.31;4979565;28;109257;-73
2022/09/12 10:40:41;;;;;;;6.97;3.10;;;23.00;72.40;;;23.58;40.36;98628.53;4981268;28;109787;-73